Time;durP1;ratioP1;P1;durP2;ratioP2;P2;SDS_P1;SDS_P2;PMS_P1;PMS_P2;Temp;Humidity;BMP_temperature;BMP_pressure;BME280_temperature;BME280_humidity;BME280_pressure;Samples;Min_cycle;Max_cycle;Signal;HPM_P1;HPM_P2
2022/09/22 00:00:15;;;;;;;30.23;21.70;;;;;;;7.31;100.00;102333.31;5080590;28;20016;-63
2022/09/22 00:02:41;;;;;;;30.60;22.40;;;;;;;7.33;100.00;102326.38;5083840;28;20028;-66
2022/09/22 00:05:07;;;;;;;30.10;21.17;;;;;;;7.31;100.00;102322.81;5081880;28;20104;-65
2022/09/22 00:07:32;;;;;;;29.73;21.13;;;;;;;7.22;100.00;102322.41;5082318;28;20020;-66
2022/09/22 00:09:57;;;;;;;29.10;20.83;;;;;;;7.19;100.00;102322.28;5083138;28;20081;-66
2022/09/22 00:12:23;;;;;;;28.60;19.85;;;;;;;7.11;100.00;102316.72;5081205;28;20055;-65
2022/09/22 00:14:48;;;;;;;28.55;20.45;;;;;;;7.02;100.00;102310.16;5084158;28;20078;-66
2022/09/22 00:17:13;;;;;;;30.60;20.95;;;;;;;6.97;100.00;102309.97;5080745;28;20440;-66
2022/09/22 00:19:39;;;;;;;29.35;21.45;;;;;;;6.97;100.00;102313.50;5083043;28;20036;-66
2022/09/22 00:22:05;;;;;;;31.88;21.55;;;;;;;7.03;100.00;102315.47;5081837;28;20027;-66
2022/09/22 00:24:31;;;;;;;29.15;20.63;;;;;;;7.05;100.00;102312.91;5082059;28;20090;-66
2022/09/22 00:26:57;;;;;;;29.17;20.05;;;;;;;7.06;100.00;102310.38;5082906;28;20386;-66
2022/09/22 00:29:24;;;;;;;28.33;19.33;;;;;;;7.04;100.00;102316.38;5081048;28;20025;-66
2022/09/22 00:31:50;;;;;;;27.05;18.80;;;;;;;7.00;100.00;102312.72;5083912;28;20024;-66
2022/09/22 00:34:21;;;;;;;27.05;18.90;;;;;;;6.92;100.00;102317.66;5080084;28;20041;-66
2022/09/22 00:36:48;;;;;;;28.52;20.60;;;;;;;6.91;100.00;102309.72;5080441;28;20458;-66
2022/09/22 00:39:15;;;;;;;29.25;20.83;;;;;;;6.79;100.00;102316.22;5087125;28;20039;-66
2022/09/22 00:41:44;;;;;;;28.35;20.10;;;;;;;6.79;100.00;102310.09;5084515;28;20383;-66
2022/09/22 00:44:31;;;;;;;27.55;19.35;;;;;;;6.83;100.00;102306.75;5086701;28;20023;-64
2022/09/22 00:47:05;;;;;;;28.08;21.27;;;;;;;6.80;100.00;102311.84;5084720;28;20468;-64
2022/09/22 00:49:51;;;;;;;28.27;20.67;;;;;;;6.75;100.00;102305.53;5085796;28;20036;-62
2022/09/22 00:52:30;;;;;;;30.33;21.92;;;;;;;6.79;100.00;102307.47;5083364;28;20063;-62
2022/09/22 00:55:01;;;;;;;29.38;21.60;;;;;;;6.76;100.00;102307.31;5084607;28;20025;-65
2022/09/22 00:57:31;;;;;;;30.02;22.35;;;;;;;6.73;100.00;102309.81;5085978;28;20050;-62
2022/09/22 00:59:56;;;;;;;29.63;22.80;;;;;;;6.59;100.00;102307.47;5084262;28;20528;-64
2022/09/22 01:02:23;;;;;;;28.58;21.58;;;;;;;6.49;100.00;102304.38;5086910;28;20032;-63
2022/09/22 01:04:50;;;;;;;28.88;20.85;;;;;;;6.54;100.00;102289.69;5083422;28;20031;-62
2022/09/22 01:07:18;;;;;;;26.58;18.35;;;;;;;6.42;100.00;102296.22;5083452;28;20036;-63
2022/09/22 01:09:44;;;;;;;26.80;18.85;;;;;;;6.37;100.00;102296.84;5087161;28;20050;-63
2022/09/22 01:12:09;;;;;;;26.85;18.92;;;;;;;6.40;100.00;102289.09;5084150;28;20458;-63
2022/09/22 01:14:57;;;;;;;26.65;18.77;;;;;;;6.40;100.00;102289.09;5085465;28;20068;-63
2022/09/22 01:17:40;;;;;;;26.15;18.55;;;;;;;6.41;100.00;102285.66;5083331;28;20031;-62
2022/09/22 01:20:31;;;;;;;26.70;18.85;;;;;;;6.38;100.00;102285.53;5083085;28;20020;-63
2022/09/22 01:23:16;;;;;;;28.27;19.35;;;;;;;6.40;100.00;102290.00;5083935;28;20142;-62
2022/09/22 01:26:10;;;;;;;28.98;19.75;;;;;;;6.44;100.00;102270.03;5083686;28;20085;-63
2022/09/22 01:29:13;;;;;;;28.02;19.38;;;;;;;6.40;100.00;102274.22;5031153;28;20046;-63
2022/09/22 01:31:49;;;;;;;27.97;19.67;;;;;;;6.38;100.00;102278.53;5032515;28;20064;-65
2022/09/22 01:34:25;;;;;;;27.40;19.15;;;;;;;6.33;100.00;102284.41;5032401;28;20296;-65
2022/09/22 01:37:05;;;;;;;26.40;18.92;;;;;;;6.28;100.00;102274.59;5024863;28;20044;-65
2022/09/22 01:39:38;;;;;;;27.40;19.45;;;;;;;6.27;100.00;102266.66;5032019;28;20111;-65
2022/09/22 01:42:10;;;;;;;28.10;20.17;;;;;;;6.24;100.00;102274.38;5032290;28;20124;-64
2022/09/22 01:44:45;;;;;;;28.80;19.88;;;;;;;6.17;100.00;102270.56;5032105;28;20188;-65
2022/09/22 01:47:47;;;;;;;28.10;20.48;;;;;;;6.22;100.00;102274.31;5032257;28;20488;-63
2022/09/22 01:50:19;;;;;;;27.92;20.80;;;;;;;6.16;100.00;102262.63;4972924;28;20114;-64
2022/09/22 01:52:47;;;;;;;28.55;19.95;;;;;;;6.11;100.00;102257.19;4973341;28;20430;-63
2022/09/22 01:55:22;;;;;;;27.45;19.55;;;;;;;6.10;100.00;102261.53;4973171;28;20050;-64
2022/09/22 01:58:00;;;;;;;27.13;19.17;;;;;;;6.08;100.00;102265.81;4969405;28;20109;-65
2022/09/22 02:00:26;;;;;;;26.55;18.85;;;;;;;6.05;100.00;102255.16;4970498;28;20094;-65
2022/09/22 02:03:00;;;;;;;27.15;18.65;;;;;;;5.90;100.00;102257.97;4972951;28;20033;-63
2022/09/22 02:05:44;;;;;;;27.92;19.42;;;;;;;5.91;100.00;102246.66;5012864;28;20041;-65
2022/09/22 02:08:16;;;;;;;27.13;18.50;;;;;;;5.88;100.00;102242.97;5031929;28;20549;-63
2022/09/22 02:10:45;;;;;;;26.02;18.27;;;;;;;5.83;100.00;102245.38;5031648;28;20087;-63
2022/09/22 02:13:10;;;;;;;26.77;18.60;;;;;;;5.83;100.00;102255.88;5031367;28;20029;-65
2022/09/22 02:18:26;;;;;;;27.15;18.73;;;;;;;5.78;100.00;102244.25;5028504;28;20151;-64
2022/09/22 02:20:52;;;;;;;27.42;19.13;;;;;;;5.74;100.00;102242.34;5028287;28;20484;-65
2022/09/22 02:23:17;;;;;;;26.73;19.02;;;;;;;5.77;100.00;102237.25;5031444;28;20037;-64
2022/09/22 02:25:44;;;;;;;27.13;19.13;;;;;;;5.72;100.00;102236.13;5037810;28;20036;-66
2022/09/22 02:28:15;;;;;;;26.48;17.77;;;;;;;5.71;100.00;102232.59;5084500;28;20394;-67
2022/09/22 02:30:42;;;;;;;25.58;18.10;;;;;;;5.74;100.00;102229.22;5082360;28;20525;-65
2022/09/22 02:33:09;;;;;;;27.58;19.00;;;;;;;5.69;100.00;102228.09;5084155;28;20471;-67
2022/09/22 02:35:38;;;;;;;27.33;20.25;;;;;;;5.62;100.00;102231.28;5082876;28;20491;-66
2022/09/22 02:38:13;;;;;;;27.92;19.65;;;;;;;5.55;100.00;102230.09;5083188;28;20021;-67
2022/09/22 02:41:06;;;;;;;27.88;20.48;;;;;;;5.51;100.00;102228.16;5082229;28;20020;-67
2022/09/22 02:43:53;;;;;;;27.63;20.52;;;;;;;5.53;100.00;102226.50;5083125;28;20441;-66
2022/09/22 02:46:29;;;;;;;26.58;19.15;;;;;;;5.50;100.00;102227.22;5081741;28;20112;-66
2022/09/22 02:49:01;;;;;;;28.23;19.30;;;;;;;5.55;100.00;102220.50;5081976;28;20020;-66
2022/09/22 02:51:29;;;;;;;26.70;17.83;;;;;;;5.52;100.00;102215.13;5084198;28;20028;-67
2022/09/22 02:53:55;;;;;;;25.92;18.60;;;;;;;5.46;100.00;102216.53;5082062;28;20021;-67
2022/09/22 02:56:21;;;;;;;29.42;21.10;;;;;;;5.49;100.00;102214.06;5084747;28;20028;-67
2022/09/22 02:58:46;;;;;;;29.60;22.90;;;;;;;5.47;100.00;102215.72;5081400;28;20107;-67
2022/09/22 03:01:12;;;;;;;29.33;22.60;;;;;;;5.41;100.00;102213.69;5083581;28;20454;-66
2022/09/22 03:03:37;;;;;;;28.98;22.00;;;;;;;5.41;100.00;102211.06;5082165;28;20024;-66
2022/09/22 03:06:02;;;;;;;30.15;23.17;;;;;;;5.36;100.00;102213.50;5082868;28;20052;-66
2022/09/22 03:08:28;;;;;;;27.20;19.27;;;;;;;5.30;100.00;102210.59;5083907;28;20051;-67
2022/09/22 03:10:53;;;;;;;26.77;19.95;;;;;;;5.29;100.00;102210.50;5081643;28;20020;-65
2022/09/22 03:13:18;;;;;;;27.20;19.70;;;;;;;5.23;100.00;102204.13;5084968;28;20024;-65
2022/09/22 03:15:45;;;;;;;27.65;19.92;;;;;;;5.20;100.00;102201.38;5081433;28;20055;-65
2022/09/22 03:18:10;;;;;;;26.20;19.08;;;;;;;5.22;100.00;102204.94;5083770;28;20033;-65
2022/09/22 03:20:35;;;;;;;27.30;19.10;;;;;;;5.19;100.00;102207.44;5082442;28;20360;-65
2022/09/22 03:23:01;;;;;;;27.55;19.83;;;;;;;5.16;100.00;102199.41;5082335;28;20032;-63
2022/09/22 03:25:26;;;;;;;27.85;20.17;;;;;;;5.17;100.00;102206.47;5083562;28;20024;-64
2022/09/22 03:27:51;;;;;;;27.75;19.77;;;;;;;5.11;100.00;102200.03;5081113;28;20364;-63
2022/09/22 03:30:17;;;;;;;27.75;21.13;;;;;;;5.11;100.00;102210.50;5084332;28;20016;-64
2022/09/22 03:32:42;;;;;;;28.38;19.88;;;;;;;5.09;100.00;102193.81;5081523;28;20375;-64
2022/09/22 03:35:08;;;;;;;27.25;19.25;;;;;;;5.11;100.00;102198.31;5082782;28;20045;-63
2022/09/22 03:37:34;;;;;;;25.48;17.88;;;;;;;5.07;100.00;102199.00;5082453;28;20107;-63
2022/09/22 03:40:00;;;;;;;25.88;18.45;;;;;;;5.06;100.00;102194.56;5082436;28;20111;-64
2022/09/22 03:42:25;;;;;;;26.42;19.17;;;;;;;5.08;100.00;102190.28;5083822;28;20443;-63
2022/09/22 03:44:51;;;;;;;28.38;19.65;;;;;;;5.06;100.00;102190.19;5080818;28;20395;-63
2022/09/22 03:47:16;;;;;;;26.58;19.17;;;;;;;5.05;100.00;102192.75;5084377;28;20493;-66
2022/09/22 03:49:41;;;;;;;28.95;21.00;;;;;;;5.06;100.00;102192.81;5080129;28;20025;-63
2022/09/22 03:52:07;;;;;;;29.23;22.25;;;;;;;5.04;100.00;102199.72;5082708;28;20024;-66
2022/09/22 03:54:34;;;;;;;30.27;23.38;;;;;;;5.00;100.00;102194.28;5082690;28;20032;-66
2022/09/22 03:56:59;;;;;;;31.27;23.60;;;;;;;4.96;100.00;102192.31;5081860;28;20016;-65
2022/09/22 03:59:24;;;;;;;31.63;25.02;;;;;;;4.95;100.00;102190.50;5083505;28;20356;-62
2022/09/22 04:01:50;;;;;;;30.02;24.10;;;;;;;4.93;100.00;102186.94;5080763;28;20529;-65
2022/09/22 04:04:16;;;;;;;29.50;22.60;;;;;;;4.87;100.00;102190.16;5083766;28;20085;-65
2022/09/22 04:06:41;;;;;;;30.13;23.75;;;;;;;4.86;100.00;102188.34;5079845;28;20069;-64
2022/09/22 04:09:06;;;;;;;29.75;22.67;;;;;;;4.87;100.00;102191.03;5082940;28;20484;-65
2022/09/22 04:11:32;;;;;;;31.25;23.38;;;;;;;4.88;100.00;102186.72;5082409;28;20035;-66
2022/09/22 04:13:58;;;;;;;28.83;22.05;;;;;;;4.86;100.00;102189.25;5084293;28;20024;-63
2022/09/22 04:16:24;;;;;;;28.45;20.48;;;;;;;4.84;100.00;102187.38;5087643;28;20508;-65
2022/09/22 04:18:49;;;;;;;27.95;21.20;;;;;;;4.82;100.00;102184.69;5084204;28;20115;-64
2022/09/22 04:21:14;;;;;;;29.52;22.88;;;;;;;4.75;100.00;102182.59;5087462;28;20494;-63
2022/09/22 04:23:40;;;;;;;29.27;21.67;;;;;;;4.74;100.00;102179.88;5085042;28;20021;-65
2022/09/22 04:26:05;;;;;;;28.35;21.85;;;;;;;4.72;100.00;102179.81;5085939;28;20032;-63
2022/09/22 04:28:31;;;;;;;28.67;21.85;;;;;;;4.69;100.00;102179.66;5086438;28;20020;-62
2022/09/22 04:30:56;;;;;;;30.45;23.65;;;;;;;4.75;100.00;102177.34;5084664;28;20048;-65
2022/09/22 04:33:23;;;;;;;30.77;24.42;;;;;;;4.73;100.00;102176.34;5087360;28;20020;-63
2022/09/22 04:35:49;;;;;;;30.35;23.98;;;;;;;4.67;100.00;102176.06;5083972;28;20391;-63
2022/09/22 04:38:14;;;;;;;30.75;24.20;;;;;;;4.66;100.00;102179.50;5086983;28;20024;-63
2022/09/22 04:40:40;;;;;;;30.38;23.60;;;;;;;4.68;100.00;102180.47;5084993;28;20099;-65
2022/09/22 04:43:05;;;;;;;32.33;24.48;;;;;;;4.63;100.00;102180.25;5086089;28;20562;-63
2022/09/22 04:45:30;;;;;;;30.15;23.98;;;;;;;4.62;100.00;102180.19;5085904;28;20099;-63
2022/09/22 04:47:56;;;;;;;31.20;23.67;;;;;;;4.57;100.00;102172.06;5084257;28;20115;-62
2022/09/22 04:50:22;;;;;;;29.65;23.27;;;;;;;4.55;100.00;102176.34;5087342;28;20038;-66
2022/09/22 04:52:50;;;;;;;29.98;23.38;;;;;;;4.45;100.00;102172.34;5083425;28;20021;-66
2022/09/22 04:55:17;;;;;;;29.73;22.67;;;;;;;4.49;100.00;102173.44;5087068;28;20107;-65
2022/09/22 04:57:50;;;;;;;31.20;23.30;;;;;;;4.44;100.00;102177.50;5084335;28;20020;-66
2022/09/22 05:00:15;;;;;;;;;;;;;;;4.46;100.00;102174.16;5087041;28;20043;-67
2022/09/22 05:02:41;;;;;;;31.02;24.25;;;;;;;4.41;100.00;102175.63;5084568;28;19958;-66
2022/09/22 05:05:07;;;;;;;31.13;25.25;;;;;;;4.41;100.00;102175.63;5085460;28;20447;-66
2022/09/22 05:07:32;;;;;;;30.60;24.65;;;;;;;4.40;100.00;102179.09;5085292;28;20028;-66
2022/09/22 05:09:58;;;;;;;32.60;26.30;;;;;;;4.44;100.00;102177.50;5084008;28;20017;-65
2022/09/22 05:12:23;;;;;;;31.55;26.30;;;;;;;4.44;100.00;102177.50;5086972;28;20094;-66
2022/09/22 05:14:49;;;;;;;33.25;26.08;;;;;;;4.39;100.00;102174.66;5083230;28;20020;-66
2022/09/22 05:17:14;;;;;;;32.25;25.08;;;;;;;4.40;100.00;102186.03;5086496;28;20077;-66
2022/09/22 05:19:40;;;;;;;31.55;25.20;;;;;;;4.32;100.00;102183.91;5083986;28;20060;-67
2022/09/22 05:22:05;;;;;;;33.22;25.30;;;;;;;4.34;100.00;102178.78;5084580;28;20028;-66
2022/09/22 05:24:31;;;;;;;30.77;24.92;;;;;;;4.32;100.00;102180.41;5086792;28;20017;-69
2022/09/22 05:26:57;;;;;;;33.35;25.50;;;;;;;4.38;100.00;102187.69;5087502;28;20517;-68
2022/09/22 05:29:22;;;;;;;32.50;25.38;;;;;;;4.41;100.00;102182.59;5086641;28;20409;-66
2022/09/22 05:31:47;;;;;;;33.83;27.15;;;;;;;4.46;100.00;102183.75;5086081;28;20054;-66
2022/09/22 05:34:12;;;;;;;33.10;26.58;;;;;;;4.47;100.00;102183.81;5082582;28;20124;-66
2022/09/22 05:36:38;;;;;;;35.65;28.90;;;;;;;4.45;100.00;102182.81;5088576;28;20398;-66
2022/09/22 05:39:03;;;;;;;34.97;28.58;;;;;;;4.45;100.00;102190.69;5091012;28;20032;-66
2022/09/22 05:41:29;;;;;;;33.00;27.17;;;;;;;4.44;100.00;102188.91;5086818;28;20024;-64
2022/09/22 05:43:54;;;;;;;32.53;26.17;;;;;;;4.42;100.00;102189.66;5086740;28;20032;-69
2022/09/22 05:46:19;;;;;;;32.40;26.50;;;;;;;4.43;100.00;102186.22;5086671;28;20122;-69
2022/09/22 05:48:45;;;;;;;33.60;27.15;;;;;;;4.44;100.00;102198.47;5085218;28;20086;-68
2022/09/22 05:51:10;;;;;;;34.58;26.65;;;;;;;4.45;100.00;102198.53;5083257;28;20045;-64
2022/09/22 05:53:35;;;;;;;34.40;27.20;;;;;;;4.49;100.00;102197.00;5086740;28;20035;-64
2022/09/22 05:56:01;;;;;;;33.53;27.52;;;;;;;4.53;100.00;102202.47;5091974;28;20048;-65
2022/09/22 05:58:26;;;;;;;36.45;27.67;;;;;;;4.57;100.00;102193.03;5082604;28;20555;-64
2022/09/22 06:00:55;;;;;;;34.88;26.75;;;;;;;4.57;100.00;102197.38;5089331;28;20031;-62
2022/09/22 06:03:21;;;;;;;33.60;27.38;;;;;;;4.61;100.00;102197.59;5087634;28;20024;-62
2022/09/22 06:05:46;;;;;;;34.95;28.52;;;;;;;4.70;100.00;102203.31;5086319;28;20053;-63
2022/09/22 06:08:11;;;;;;;35.97;29.63;;;;;;;4.69;100.00;102205.88;5085805;28;20016;-63
2022/09/22 06:10:37;;;;;;;36.55;30.40;;;;;;;4.74;100.00;102204.34;5083587;28;20027;-64
2022/09/22 06:13:05;;;;;;;37.22;31.20;;;;;;;4.75;100.00;102195.69;5086592;28;20089;-64
2022/09/22 06:15:35;;;;;;;36.72;30.67;;;;;;;4.80;100.00;102202.03;5085615;28;20050;-63
2022/09/22 06:18:01;;;;;;;37.15;30.98;;;;;;;4.87;100.00;102204.13;5087071;28;20033;-63
2022/09/22 06:20:27;;;;;;;37.95;30.17;;;;;;;4.96;100.00;102202.81;5087114;28;20082;-62
2022/09/22 06:22:53;;;;;;;36.47;30.30;;;;;;;5.03;100.00;102197.91;5080851;28;20405;-66
2022/09/22 06:25:19;;;;;;;34.55;29.40;;;;;;;5.09;100.00;102193.81;5077451;28;20095;-66
2022/09/22 06:27:45;;;;;;;36.97;29.83;;;;;;;5.17;100.00;102197.69;5079267;28;20020;-65
2022/09/22 06:30:12;;;;;;;36.60;30.58;;;;;;;5.20;100.00;102196.13;5080987;28;20024;-63
2022/09/22 06:32:38;;;;;;;35.70;30.75;;;;;;;5.27;100.00;102199.03;5079290;28;20034;-64
2022/09/22 06:35:05;;;;;;;36.50;31.13;;;;;;;5.30;100.00;102191.31;5076859;28;20506;-64
2022/09/22 06:37:31;;;;;;;37.35;31.75;;;;;;;5.38;100.00;102190.84;5080132;28;20020;-67
2022/09/22 06:39:57;;;;;;;36.17;31.48;;;;;;;5.47;100.00;102195.63;5077969;28;20390;-65
2022/09/22 06:42:22;;;;;;;36.70;31.67;;;;;;;5.55;100.00;102189.00;5078123;28;20490;-64
2022/09/22 06:44:47;;;;;;;37.53;33.42;;;;;;;5.61;100.00;102192.72;5078927;28;20069;-64
2022/09/22 06:47:13;;;;;;;38.50;32.95;;;;;;;5.67;100.00;102190.41;5076580;28;20375;-64
2022/09/22 06:49:40;;;;;;;39.53;34.40;;;;;;;5.73;100.00;102196.81;5076623;28;20055;-63
2022/09/22 06:52:09;;;;;;;40.08;34.45;;;;;;;5.84;100.00;102191.16;5060342;28;20035;-66
2022/09/22 06:54:36;;;;;;;42.00;34.00;;;;;;;5.89;100.00;102197.53;5078251;28;20027;-64
2022/09/22 06:57:02;;;;;;;39.78;34.38;;;;;;;5.93;100.00;102192.47;5076294;28;20024;-66
2022/09/22 06:59:28;;;;;;;38.95;34.03;;;;;;;6.06;100.00;102187.84;5076091;28;20124;-66
2022/09/22 07:01:53;;;;;;;42.65;35.20;;;;;;;6.18;100.00;102190.97;5080641;28;20367;-65
2022/09/22 07:04:21;;;;;;;39.80;34.25;;;;;;;6.24;100.00;102183.34;5078086;28;20081;-66
2022/09/22 07:06:49;;;;;;;42.50;34.63;;;;;;;6.32;100.00;102186.34;5077868;28;20020;-65
2022/09/22 07:09:14;;;;;;;42.08;35.40;;;;;;;6.39;100.00;102176.97;5077025;28;20028;-64
2022/09/22 07:11:40;;;;;;;42.47;36.20;;;;;;;6.52;100.00;102178.41;5077319;28;20459;-63
2022/09/22 07:14:05;;;;;;;41.03;35.72;;;;;;;6.61;100.00;102179.69;5078221;28;20085;-65
2022/09/22 07:16:30;;;;;;;42.78;35.97;;;;;;;6.72;100.00;102181.88;5078788;28;20099;-64
2022/09/22 07:18:57;;;;;;;42.92;36.00;;;;;;;6.80;100.00;102177.81;5084969;28;20512;-65
2022/09/22 07:21:26;;;;;;;44.30;37.83;;;;;;;6.95;100.00;102178.44;5086792;28;20035;-63
2022/09/22 07:23:55;;;;;;;43.97;36.25;;;;;;;7.10;100.00;102185.16;5081966;28;20467;-63
2022/09/22 07:26:32;;;;;;;42.72;35.95;;;;;;;7.26;100.00;102181.41;5082936;28;20044;-64
2022/09/22 07:29:04;;;;;;;42.00;35.38;;;;;;;7.39;100.00;102173.13;5084041;28;20066;-65
2022/09/22 07:31:31;;;;;;;43.97;36.58;;;;;;;7.55;100.00;102171.09;5083243;28;20039;-65
2022/09/22 07:33:59;;;;;;;41.83;35.20;;;;;;;7.65;100.00;102173.25;5084531;28;20022;-64
2022/09/22 07:36:28;;;;;;;41.53;34.83;;;;;;;7.79;100.00;102166.75;5087041;28;20088;-64
2022/09/22 07:38:56;;;;;;;39.88;34.55;;;;;;;7.88;100.00;102175.81;5086378;28;20024;-63
2022/09/22 07:41:26;;;;;;;40.60;34.20;;;;;;;8.04;100.00;102175.56;5086407;28;20054;-63
2022/09/22 07:43:55;;;;;;;38.92;34.58;;;;;;;8.20;100.00;102180.50;5083695;28;20036;-63
2022/09/22 07:46:20;;;;;;;37.95;33.30;;;;;;;8.31;100.00;102180.88;5085693;28;20035;-63
2022/09/22 07:48:46;;;;;;;37.60;32.42;;;;;;;8.38;100.00;102177.63;5091122;28;20378;-63
2022/09/22 07:51:20;;;;;;;38.25;33.10;;;;;;;8.48;100.00;102178.88;5090685;28;20427;-63
2022/09/22 07:53:56;;;;;;;38.88;32.53;;;;;;;8.64;100.00;102177.66;5089560;28;20020;-62
2022/09/22 07:56:22;;;;;;;37.80;31.65;;;;;;;8.68;100.00;102181.31;5092030;28;20059;-64
2022/09/22 07:58:51;;;;;;;38.85;31.38;;;;;;;8.80;100.00;102176.41;5091180;28;20029;-64
2022/09/22 08:01:33;;;;;;;37.50;31.33;;;;;;;8.86;100.00;102178.38;5088657;28;20058;-65
2022/09/22 08:03:59;;;;;;;36.72;31.33;;;;;;;9.03;100.00;102174.53;5100558;28;20382;-64
2022/09/22 08:06:26;;;;;;;35.50;28.90;;;;;;;9.21;100.00;102168.03;5089663;28;20028;-63
2022/09/22 08:08:55;;;;;;;34.78;27.15;;;;;;;9.33;100.00;102170.16;5088158;28;20024;-64
2022/09/22 08:11:26;;;;;;;31.83;25.90;;;;;;;9.35;100.00;102165.81;5085221;28;20043;-65
2022/09/22 08:13:54;;;;;;;32.70;25.00;;;;;;;9.54;100.00;102159.38;5087921;28;20101;-63
2022/09/22 08:16:21;;;;;;;31.40;23.70;;;;;;;9.80;100.00;102164.47;5084854;28;20035;-64
2022/09/22 08:18:55;;;;;;;32.50;23.63;;;;;;;9.98;100.00;102161.50;5086477;28;20493;-63
2022/09/22 08:21:44;;;;;;;35.75;24.65;;;;;;;10.14;100.00;102161.03;5085045;28;20035;-64
2022/09/22 08:24:12;;;;;;;26.42;18.50;;;;;;;10.30;100.00;102159.72;5086028;28;20194;-63
2022/09/22 08:26:39;;;;;;;28.85;20.50;;;;;;;10.44;100.00;102155.72;5086444;28;20024;-63
2022/09/22 08:29:06;;;;;;;27.70;18.92;;;;;;;10.52;100.00;102152.38;5084589;28;20074;-64
2022/09/22 08:31:32;;;;;;;27.63;19.10;;;;;;;10.58;100.00;102152.53;5087608;28;20107;-65
2022/09/22 08:33:58;;;;;;;27.25;18.35;;;;;;;10.77;100.00;102151.22;5083869;28;20044;-63
2022/09/22 08:36:26;;;;;;;27.92;19.00;;;;;;;10.87;100.00;102149.69;5087644;28;20020;-63
2022/09/22 08:38:53;;;;;;;26.13;17.10;;;;;;;10.97;100.00;102149.06;5084452;28;20032;-65
2022/09/22 08:41:30;;;;;;;26.15;15.93;;;;;;;11.47;100.00;102148.41;5086460;28;20474;-63
2022/09/22 08:44:11;;;;;;;26.20;16.30;;;;;;;12.29;100.00;102147.38;5083630;28;20123;-63
2022/09/22 08:46:39;;;;;;;24.88;15.35;;;;;;;12.84;100.00;102153.63;5084599;28;20028;-66
2022/09/22 08:52:42;;;;;;;25.00;15.38;;;;;;;13.01;100.00;102160.94;5085133;28;20383;-64
2022/09/22 08:55:18;;;;;;;24.95;15.25;;;;;;;12.99;100.00;102158.28;5084938;28;20035;-63
2022/09/22 08:57:59;;;;;;;23.25;14.68;;;;;;;13.24;100.00;102164.81;5085005;28;20024;-64
2022/09/22 09:00:34;;;;;;;25.45;14.15;;;;;;;14.27;100.00;102157.25;5086856;28;20417;-64
2022/09/22 09:03:30;;;;;;;23.55;13.45;;;;;;;15.52;100.00;102160.84;5083462;28;20044;-61
2022/09/22 09:06:22;;;;;;;21.30;10.38;;;;;;;16.42;100.00;102163.78;5083419;28;20078;-61
2022/09/22 09:09:00;;;;;;;21.63;10.57;;;;;;;17.41;100.00;102161.91;5085783;28;20025;-62
2022/09/22 09:11:34;;;;;;;19.67;8.90;;;;;;;17.93;100.00;102167.97;5083239;28;20039;-62
2022/09/22 09:14:37;;;;;;;21.10;9.57;;;;;;;18.53;100.00;102161.34;5085572;28;20032;-63
2022/09/22 09:17:13;;;;;;;20.25;8.77;;;;;;;19.05;100.00;102166.25;5085536;28;20141;-63
2022/09/22 09:19:43;;;;;;;20.52;8.10;;;;;;;19.84;97.74;102165.34;5086613;28;20093;-64
2022/09/22 09:22:27;;;;;;;20.58;8.50;;;;;;;20.53;100.00;102172.38;5091745;28;20331;-62
2022/09/22 09:25:01;;;;;;;19.92;7.65;;;;;;;21.07;87.50;102159.81;5088793;28;20035;-64
2022/09/22 09:27:32;;;;;;;18.25;6.88;;;;;;;21.56;74.10;102158.88;5085928;28;20546;-64
2022/09/22 09:30:05;;;;;;;16.63;5.90;;;;;;;21.63;67.85;102164.16;5089740;28;20073;-64
2022/09/22 09:33:00;;;;;;;16.75;5.85;;;;;;;21.82;72.08;102164.63;5086379;28;20074;-64
2022/09/22 09:35:43;;;;;;;16.70;6.03;;;;;;;21.85;51.44;102161.88;5010012;28;20117;-62
2022/09/22 09:38:13;;;;;;;18.65;6.45;;;;;;;20.85;52.89;102162.94;5011686;28;20041;-62
2022/09/22 09:40:39;;;;;;;16.42;5.95;;;;;;;21.33;52.75;102161.13;5010838;28;20061;-62
2022/09/22 09:43:05;;;;;;;14.90;4.93;;;;;;;22.21;47.13;102160.16;5011831;28;20088;-62
2022/09/22 09:45:43;;;;;;;13.77;4.60;;;;;;;22.44;48.76;102158.72;5011386;28;20391;-62
2022/09/22 09:48:20;;;;;;;14.73;4.80;;;;;;;22.97;43.18;102159.16;5011372;28;20072;-61
2022/09/22 09:50:46;;;;;;;14.60;4.70;;;;;;;23.26;40.44;102159.31;5011318;28;20060;-62
2022/09/22 09:53:33;;;;;;;15.75;5.10;;;;;;;23.50;42.85;102160.41;5011022;28;20033;-61
2022/09/22 09:55:59;;;;;;;15.00;4.45;;;;;;;23.99;37.41;102156.25;5011373;28;20080;-61
2022/09/22 10:01:12;;;;;;;14.93;4.38;;;;;;;25.24;34.46;102151.19;5011385;28;20491;-63
2022/09/22 10:03:53;;;;;;;12.38;4.20;;;;;;;25.77;34.22;102150.09;5011026;28;20036;-62
2022/09/22 10:06:24;;;;;;;11.15;4.00;;;;;;;25.52;33.62;102147.47;5010633;28;20065;-62
2022/09/22 10:08:50;;;;;;;14.75;4.43;;;;;;;23.81;35.11;102140.63;5009927;28;20232;-63
2022/09/22 10:11:28;;;;;;;12.30;4.10;;;;;;;23.84;37.08;102146.78;5028979;28;20039;-63
2022/09/22 10:13:55;;;;;;;12.48;3.60;;;;;;;24.96;33.21;102135.06;5081742;28;20040;-63
2022/09/22 10:16:25;;;;;;;11.40;4.00;;;;;;;24.58;35.10;102143.56;5085574;28;20016;-64
2022/09/22 10:19:20;;;;;;;11.32;3.90;;;;;;;25.13;36.39;102139.84;5082126;28;20092;-66
2022/09/22 10:21:45;;;;;;;13.80;3.60;;;;;;;26.07;32.71;102137.19;5006175;28;20033;-66
2022/09/22 10:24:31;;;;;;;11.93;4.00;;;;;;;26.87;33.10;102138.38;5022129;28;20099;-66
2022/09/22 10:26:56;;;;;;;11.20;4.00;;;;;;;27.04;30.01;102140.34;5021005;28;20432;-66
2022/09/22 10:29:23;;;;;;;11.35;4.00;;;;;;;27.55;29.73;102135.34;5020240;28;20040;-66
2022/09/22 10:32:01;;;;;;;14.00;4.13;;;;;;;28.22;30.21;102137.59;5023084;28;20037;-66
2022/09/22 10:34:33;;;;;;;12.40;4.25;;;;;;;27.56;28.74;102130.78;5023091;28;20058;-66
2022/09/22 10:37:02;;;;;;;11.85;4.10;;;;;;;27.23;29.95;102129.53;5021704;28;20040;-66
2022/09/22 10:39:38;;;;;;;11.57;4.00;;;;;;;27.38;31.13;102117.13;5020542;28;20427;-66
2022/09/22 10:42:13;;;;;;;12.98;4.40;;;;;;;27.26;29.03;102115.84;5020846;28;20030;-66
2022/09/22 10:44:39;;;;;;;13.35;5.05;;;;;;;27.79;29.63;102114.25;5022194;28;20029;-66
2022/09/22 10:47:30;;;;;;;12.90;4.40;;;;;;;28.37;28.59;102120.53;5020653;28;20040;-66
2022/09/22 10:50:20;;;;;;;12.25;3.60;;;;;;;29.81;28.69;102105.56;5022811;28;20034;-66
2022/09/22 10:52:54;;;;;;;8.32;3.15;;;;;;;29.38;27.42;102105.25;5023330;28;20141;-66
2022/09/22 10:55:29;;;;;;;10.35;3.28;;;;;;;29.88;25.80;102098.81;5022618;28;20041;-66
2022/09/22 10:58:07;;;;;;;10.98;3.38;;;;;;;28.19;27.57;102114.16;5030401;28;20039;-68
2022/09/22 11:00:34;;;;;;;11.07;3.30;;;;;;;27.56;28.25;102106.34;5084854;28;20027;-69
2022/09/22 11:03:41;;;;;;;10.40;3.40;;;;;;;27.62;29.75;102100.63;5084243;28;20028;-67
2022/09/22 11:12:31;;;;;;;14.05;4.20;;;;;;;29.18;29.44;102090.00;5086077;28;20034;-62
2022/09/22 11:15:15;;;;;;;9.65;3.50;;;;;;;30.72;24.16;102088.44;5086522;28;20035;-62
2022/09/22 11:17:43;;;;;;;7.28;2.90;;;;;;;30.39;24.17;102094.94;5080748;28;20050;-63
2022/09/22 11:20:43;;;;;;;9.63;3.35;;;;;;;30.81;25.25;102096.06;5084382;28;20032;-62
2022/09/22 11:23:30;;;;;;;12.60;3.80;;;;;;;31.85;22.68;102092.22;5084827;28;20020;-62
2022/09/22 11:26:10;;;;;;;11.27;3.65;;;;;;;30.99;23.63;102084.97;5088719;28;20043;-64
2022/09/22 11:28:56;;;;;;;8.80;3.42;;;;;;;30.74;24.10;102086.47;5085742;28;20544;-62
2022/09/22 11:31:39;;;;;;;10.38;3.60;;;;;;;30.66;23.84;102086.09;5087876;28;20032;-63
2022/09/22 11:34:33;;;;;;;8.43;3.15;;;;;;;30.97;24.35;102078.72;5082311;28;20049;-63
2022/09/22 11:37:29;;;;;;;10.68;3.30;;;;;;;29.57;25.57;102069.69;5082920;28;20036;-63
2022/09/22 11:40:43;;;;;;;9.43;3.35;;;;;;;26.47;29.71;102079.56;5086424;28;20165;-65
2022/09/22 11:43:23;;;;;;;11.73;3.10;;;;;;;28.47;26.59;102067.44;5025500;28;20033;-66